AirNav   Pilot Hours Calculator
 
 1119 users online  

MY66 North Star Ranch Airport
Onamia, Minnesota, USA

GOING TO ONAMIA?


FAA INFORMATION EFFECTIVE 01 DECEMBER 2022

Location

FAA Identifier: MY66
Lat/Long: 46-04-13.8630N 093-50-49.9160W
46-04.231050N 093-50.831933W
46.0705175,-93.8471989
(estimated)
Elevation: 1330 ft. / 405 m (estimated)
Variation: 03E (1985)
From city: 8 miles W of ONAMIA, MN
Time zone: UTC -6 (UTC -5 during Daylight Saving Time)
Zip code: 56338

Airport Operations

Airport use: Private use. Permission required prior to landing
Activation date: 08/1985
Control tower: no
ARTCC: MINNEAPOLIS CENTER
FSS: PRINCETON FLIGHT SERVICE STATION
Attendance: UNATNDD
Segmented circle: no

Nearby radio navigation aids

VOR radial/distance  VOR name  Freq  Var
STCr013/32.5ST CLOUD VOR/DME112.1003E

 
NDB name  Hdg/Dist  Freq  Var  ID
RIPLEY088/20.740403EXCR -..- -.-. .-.

Airport Services

Runway Information

Runway 18/36

Dimensions: 3500 x 100 ft. / 1067 x 30 m
Surface: turf
RUNWAY 18  RUNWAY 36
Traffic pattern: leftleft
Obstructions: 40 ft. trees, 200 ft. from runwaynone

Airport Ownership and Management from official FAA records

Ownership: Privately-owned
Owner: WILLMUS COMPANIES
2819 HAMLINE AVE NORTH NR 111
ROSEVILLE, MN 55113
Phone 651-633-1865
Manager: THOMAS M. WILLMUS
RT 1
HILLMAN, MN 56338
Phone 651-633-1865

Airport Operational Statistics

Aircraft based on the field: 1
Single engine airplanes: 1
    

Additional Remarks

DO NOT CHART PER MN DEPT OF TRANSPORTATION.
FOR CD CTC MINNEAPOLIS ARTCC AT 651-463-5588.

Instrument Procedures

There are no published instrument procedures at MY66.

Some nearby airports with instrument procedures:

KRYM - Ray S Miller Army Airfield (21 nm W)
KLXL - Little Falls/Morrison County Airport-Lindbergh Field (22 nm W)
KBRD - Brainerd Lakes Regional Airport (23 nm NW)
KJMR - Mora Municipal Airport (26 nm SE)
KAIT - Aitkin Municipal Airport - Steve Kurtz Field (30 nm N)
 
Loc | Ops | Rwys | IFR | FBO | Links
Com | Nav | Svcs | Stats | Notes
Area around MY66 (North Star Ranch Airport)
 
Road maps at: MapQuest Bing Google
 
Aerial photo
WARNING: Photo may not be current or correct
Aerial photo of MY66 (North Star Ranch Airport)
Photo taken 01-Dec-2010
looking ENE.

Do you have a better or more recent aerial photo of North Star Ranch Airport that you would like to share? If so, please send us your photo.

 
Sectional chart

 
Airport distance calculator
Flying to North Star Ranch Airport? Find the distance to fly.

From to MY66

Sunrise and sunset
Times for 03-Dec-2022
 Local
(UTC-6)
 Zulu
(UTC)
Morning civil twilight07:0613:06
Sunrise07:4013:40
Sunset16:3022:30
Evening civil twilight17:0423:04

Current date and time
Zulu (UTC)  04-Dec-2022 01:22:05
Local (UTC-6)  03-Dec-2022 19:22:05
 
METAR
KRYM 
21nm W 
040055Z AUTO 00000KT 10SM CLR M14/M18 A3020 RMK AO2 SLP261 T11451185 $
KLXL 
22nm W 
040055Z AUTO 00000KT 10SM M15/M17 RMK AO2
KBRD 
23nm NW 
040053Z AUTO 17003KT 10SM CLR M15/M19 A3021 RMK AO2 SLP263 T11501189
KJMR 
27nm SE 
040055Z AUTO 18005KT 10SM CLR M12/M16 A3028 RMK AO2
KAIT 
29nm N 
040055Z AUTO 21004KT 10SM CLR M13/M18 A3021 RMK AO2
KSTC 
32nm S 
040053Z 17006KT 10SM CLR M12/M16 A3024 RMK AO2 SLP275 T11221156 $
KPNM 
33nm S 
040055Z AUTO 00000KT 10SM CLR M12/M16 A3027 RMK AO2
KCBG 
39nm SE 
040055Z AUTO 00000KT 10SM CLR M13/M20 A3028 RMK AO2
KHZX 
40nm NE 
040055Z AUTO 22005KT 10SM CLR M12/M17 A3020 RMK AO2
K04W 
40nm E 
040059Z AUTO 20005KT 10SM CLR M13/M17 A3025 RMK AO2
TAF
KBRD 
23nm NW 
031735Z 0318/0418 24012G16KT P6SM FEW210 FM032300 22008KT P6SM SCT190 FM040900 25007KT P6SM FEW250 WS020/29030KT FM041500 26007G16KT P6SM SKC
NOTAMs
Click for the latest NOTAMs
NOTAMs are issued by the DoD/FAA and will open in a separate window not controlled by AirNav.

 

 
 

Would you like to see your business listed on this page?

 If your business provides an interesting product or service to pilots, flight crews, aircraft, or users of the North Star Ranch Airport, you should consider listing it here.  To start the listing process, click on the button below
 
Add a business
 

Other Pages about North Star Ranch Airport

Update a link
 
Copyright © AirNav, LLC. All rights reserved. Privacy Policy  Contact